Flight Track Log - Related Links

Times and Time Zones

All times are in EDT time to prevent confusion due to time zone crossing. See the N3442T flight status page for this flight to view local times or setup timezone preferences in your user account.

Time Position Orientation Groundspeed Altitude Reporting Facility
EDT Latitude Longitude Course Direction KTS MPH feet Rate Location/Type
Mon 12:52:14 PM 35.3539 -77.5825 42° Northeast 110 127 1,500  Level Washington Center
Mon 12:52:59 PM 35.3725 -77.5650 37° Northeast 125 144 2,100 889 Climbing Washington Center
Mon 12:54:02 PM 35.4008 -77.5389 37° Northeast 124 143 3,100 1,000 Climbing Washington Center
Mon 12:55:05 PM 35.4369 -77.5122 31° Northeast 124 143 4,200 871 Climbing Washington Center
Mon 12:56:06 PM 35.4722 -77.4897 27° Northeast 128 147 4,900 774 Climbing Washington Center
Mon 12:58:11 PM 35.5364 -77.4467 29° Northeast 133 153 6,600 714 Climbing Washington Center
Mon 12:59:11 PM 35.5678 -77.4239 31° Northeast 132 152 7,100 194 Climbing Washington Center
Mon 01:00:15 PM 35.6047 -77.4014 26° Northeast 141 162 7,000  Descending Washington Center
Mon 01:02:19 PM 35.6814 -77.3475 30° Northeast 143 165 7,100 33 Climbing Washington Center
Mon 01:03:19 PM 35.7147 -77.3239 30° Northeast 139 160 7,100  Level Washington Center
Mon 01:05:24 PM 35.7933 -77.2725 34° Northeast 160 184 7,100 -32 Level Washington Center
Mon 01:06:28 PM 35.8389 -77.2392 31° Northeast 160 184 7,000  Descending Washington Center
Mon 01:07:29 PM 35.8783 -77.2144 27° Northeast 160 184 7,100  Climbing Washington Center
Mon 01:08:33 PM 35.9147 -77.1864 32° Northeast 157 181 7,000 -48 Descending Washington Center
Mon 01:09:34 PM 35.9525 -77.1622 27° Northeast 157 181 7,000  Level Washington Center
Mon 01:10:35 PM 35.9903 -77.1361 29° Northeast 155 178 7,000 -48 Level Washington Center
Mon 01:11:38 PM 36.0350 -77.1050 29° Northeast 157 181 6,900 -48 Descending Washington Center
Mon 01:12:39 PM 36.0733 -77.0781 30° Northeast 157 181 6,900  Level Washington Center
Mon 01:13:43 PM 36.1128 -77.0519 28° Northeast 158 182 6,900  Level Washington Center
Mon 01:14:44 PM 36.1514 -77.0239 30° Northeast 158 182 6,900  Level Washington Center
Mon 01:16:48 PM 36.2294 -76.9669 30° Northeast 163 188 6,900  Level Washington Center
Mon 01:17:52 PM 36.2747 -76.9353 29° Northeast 159 183 6,900 46 Level Washington Center
Mon 01:18:59 PM 36.3219 -76.9039 28° Northeast 159 183 7,000  Climbing Washington Center
Mon 01:19:53 PM 36.3522 -76.8803 32° Northeast 159 183 6,900  Descending Washington Center
Mon 01:20:55 PM 36.3958 -76.8497 29° Northeast 163 188 7,000 48 Climbing Washington Center
Mon 01:21:58 PM 36.4386 -76.8186 30° Northeast 164 189 7,000 -48 Level Washington Center
Mon 01:23:01 PM 36.4814 -76.7903 28° Northeast 168 193 6,900  Descending Washington Center
Mon 01:24:03 PM 36.5239 -76.7581 31° Northeast 165 190 7,000 48 Climbing Washington Center
Mon 01:25:06 PM 36.5619 -76.7297 31° Northeast 161 185 7,000  Level Washington Center
Mon 01:26:05 PM 36.6022 -76.7022 29° Northeast 161 185 7,000  Level Washington Center
Mon 01:27:06 PM 36.6403 -76.6739 31° Northeast 163 188 7,000  Level Washington Center
Mon 01:28:12 PM 36.6772 -76.6467 31° Northeast 165 190 7,000  Level Washington Center
Mon 01:29:07 PM 36.7231 -76.6136 30° Northeast 167 192 7,000  Level Washington Center
Mon 01:30:08 PM 36.7608 -76.5878 29° Northeast 162 186 7,000  Level Washington Center
Mon 01:31:08 PM 36.8033 -76.5578 29° Northeast 165 190 7,000  Level Washington Center
Mon 01:32:21 PM 36.8492 -76.5217 32° Northeast 165 190 7,000  Level Washington Center
Mon 01:33:21 PM 36.8886 -76.4942 29° Northeast 165 190 7,000  Level Washington Center
Mon 01:34:19 PM 36.9247 -76.4661 32° Northeast 164 189 7,000  Level Washington Center
Mon 01:35:19 PM 36.9672 -76.4361 29° Northeast 164 189 7,000  Level Washington Center
Mon 01:36:26 PM 37.0097 -76.4058 30° Northeast 161 185 7,000  Level Washington Center
Mon 01:37:21 PM 37.0475 -76.3775 31° Northeast 168 193 7,000  Level Washington Center
Mon 01:38:34 PM 37.0936 -76.3433 31° Northeast 169 194 7,000  Level Washington Center
Mon 01:39:34 PM 37.1336 -76.3147 30° Northeast 169 194 7,000  Level Washington Center
Mon 01:40:22 PM 37.1683 -76.2878 32° Northeast 166 191 7,000  Level Washington Center
Mon 01:40:37 PM 37.1728 -76.2853 24° Northeast 168 193 7,000 79 Level Washington Center
Mon 01:41:38 PM 37.2206 -76.2500 30° Northeast 168 193 7,100  Climbing Washington Center
Mon 01:42:30 PM 37.2536 -76.2244 32° Northeast 165 190 7,000 -94 Descending Washington Center
Mon 01:42:42 PM 37.2600 -76.2203 27° Northeast 168 193 7,000  Level Washington Center
Mon 01:43:25 PM 37.2892 -76.1981 31° Northeast 157 181 7,000  Level Washington Center
Mon 01:43:43 PM 37.2975 -76.1928 27° Northeast 161 185 7,000  Level Washington Center
Mon 01:44:26 PM 37.3272 -76.1692 32° Northeast 161 185 7,000  Level Washington Center
Mon 01:44:48 PM 37.3361 -76.1647 22° Northeast 161 185 7,000 -72 Level Washington Center
Mon 01:45:49 PM 37.3764 -76.1347 31° Northeast 161 185 6,900  Descending Washington Center
Mon 01:47:29 PM 37.4450 -76.0836 47° Northeast 163 188 7,000  Climbing Washington Center
Mon 01:47:53 PM 37.4556 -76.0756 31° Northeast 162 186 6,900 -70 Descending Washington Center
Mon 01:48:55 PM 37.5031 -76.0406 30° Northeast 163 188 6,900 53 Level Washington Center
Mon 01:49:47 PM 37.5369 -76.0139 32° Northeast 166 191 7,000 54 Climbing Washington Center
Mon 01:50:47 PM 37.5744 -75.9872 29° Northeast 158 182 7,000  Level Washington Center
Mon 01:50:59 PM 37.5800 -75.9833 29° Northeast 162 186 7,000  Level Washington Center
Mon 01:52:01 PM 37.6186 -75.9547 30° Northeast 162 186 7,000  Level Washington Center
Mon 01:52:49 PM 37.6511 -75.9372 23° Northeast 155 178 7,000  Level Washington Center
Mon 01:53:04 PM 37.6575 -75.9314 36° Northeast 159 183 7,000  Level Washington Center
Mon 01:53:49 PM 37.6908 -75.9111 26° Northeast 156 180 7,000  Level Washington Center
Mon 01:54:05 PM 37.7056 -75.9042 20° North 158 182 7,000  Level Washington Center
Mon 01:54:50 PM 37.7322 -75.8856 29° Northeast 159 183 7,000  Level Washington Center
Mon 01:55:08 PM 37.7453 -75.8794 20° North 158 182 7,000  Level Washington Center
Mon 01:55:50 PM 37.7736 -75.8625 25° Northeast 159 183 7,000  Level Washington Center
Mon 01:56:09 PM 37.7889 -75.8536 25° Northeast 158 182 7,000  Level Washington Center
Mon 01:57:11 PM 37.8278 -75.8297 26° Northeast 157 181 7,000  Level Washington Center
Mon 01:58:15 PM 37.8639 -75.8069 26° Northeast 157 181 7,000  Level Washington Center
Mon 01:59:16 PM 37.9028 -75.7828 26° Northeast 156 180 7,000  Level Washington Center
Mon 02:00:19 PM 37.9494 -75.7542 26° Northeast 156 180 7,000  Level Washington Center
Mon 02:01:04 PM 37.9789 -75.7356 26° Northeast 153 176 7,000  Level Washington Center
Mon 02:01:21 PM 37.9864 -75.7317 22° Northeast 150 173 7,000  Level Washington Center
Mon 02:02:22 PM 38.0256 -75.7089 25° Northeast 150 173 7,000  Level Washington Center
Mon 02:04:14 PM 38.1006 -75.6625 26° Northeast 160 184 7,000  Level Washington Center
Mon 02:04:26 PM 38.1064 -75.6600 19° North 159 183 7,000  Level Washington Center
Mon 02:04:57 PM 38.1261 -75.6464 28° Northeast 158 182 7,000  Level Washington Center
Mon 02:05:30 PM 38.1450 -75.6358 24° Northeast 159 183 7,000  Level Washington Center
Mon 02:06:31 PM 38.1928 -75.6075 25° Northeast 159 183 7,000  Level Washington Center
Mon 02:07:59 PM 38.2461 -75.5703 29° Northeast 159 183 7,000  Level Washington Center
Mon 02:08:36 PM 38.2703 -75.5569 23° Northeast 159 183 7,000  Level Washington Center
Mon 02:08:57 PM 38.2897 -75.5444 27° Northeast 157 181 7,000  Level Washington Center
Mon 02:09:37 PM 38.3092 -75.5333 24° Northeast 157 181 7,000  Level Washington Center
Mon 02:09:58 PM 38.3286 -75.5206 27° Northeast 158 182 7,000  Level Washington Center
Mon 02:10:38 PM 38.3511 -75.5064 26° Northeast 157 181 7,000  Level Washington Center
Mon 02:10:59 PM 38.3678 -75.4967 25° Northeast 157 181 7,000  Level Washington Center
Mon 02:11:42 PM 38.3911 -75.4808 28° Northeast 158 182 7,000  Level Washington Center
Mon 02:12:45 PM 38.4311 -75.4536 28° Northeast 160 184 7,000  Level Washington Center
Mon 02:13:45 PM 38.4794 -75.4247 25° Northeast 159 183 7,000  Level Washington Center
Mon 02:14:49 PM 38.5192 -75.3989 27° Northeast 159 183 7,000  Level Washington Center
Mon 02:15:50 PM 38.5583 -75.3750 25° Northeast 157 181 7,000  Level Washington Center
Mon 02:17:55 PM 38.6372 -75.3225 27° Northeast 159 183 7,000  Level Washington Center
Mon 02:18:55 PM 38.6753 -75.2989 26° Northeast 158 182 7,000  Level Washington Center
Mon 02:19:59 PM 38.7236 -75.2681 26° Northeast 158 182 7,000  Level Washington Center
Mon 02:20:59 PM 38.7650 -75.2406 27° Northeast 163 188 7,000  Level Washington Center
Mon 02:22:03 PM 38.8044 -75.2156 26° Northeast 163 188 7,000  Level Washington Center
Mon 02:23:05 PM 38.8450 -75.1908 25° Northeast 162 186 7,000 -48 Level Washington Center
Mon 02:24:08 PM 38.8847 -75.1700 22° Northeast 159 183 6,900 -48 Descending Washington Center
Mon 02:25:09 PM 38.9236 -75.1472 24° Northeast 158 182 6,900  Level Washington Center
Mon 02:26:13 PM 38.9694 -75.1203 25° Northeast 155 178 6,900  Level Washington Center
Mon 02:27:13 PM 39.0086 -75.0994 22° Northeast 152 175 6,900  Level Washington Center
Mon 02:28:17 PM 39.0461 -75.0767 25° Northeast 151 174 6,900  Level Washington Center
Mon 02:29:19 PM 39.0844 -75.0558 23° Northeast 151 174 6,900  Level Washington Center
Mon 02:30:19 PM 39.1211 -75.0328 26° Northeast 151 174 6,900  Level Washington Center
Mon 02:32:23 PM 39.2033 -74.9864 24° Northeast 149 171 6,900  Level Washington Center
Mon 02:33:26 PM 39.2408 -74.9658 23° Northeast 149 171 6,900  Level Washington Center
Mon 02:34:27 PM 39.2772 -74.9389 30° Northeast 149 171 6,900  Level Washington Center
Mon 02:35:31 PM 39.3131 -74.9050 36° Northeast 154 177 6,900 -288 Level Washington Center
Mon 02:38:37 PM 39.4419 -74.7839 38° Northeast 179 206 5,700 -387 Descending Washington Center
Mon 02:40:41 PM 39.5233 -74.7069 36° Northeast 179 206 4,900 -259 Descending Washington Center
Mon 02:41:42 PM 39.5622 -74.6711 35° Northeast 179 206 4,900 48 Level Washington Center
Mon 02:42:47 PM 39.6092 -74.6272 36° Northeast 178 205 5,000 32 Climbing Washington Center
Mon 02:44:00 PM 39.6101 -74.6066 38° Northeast  Level FlightAware Approximate
Mon 02:44:00 PM 39.6451 -74.5739 49° Northeast  Level FlightAware Approximate
Mon 02:44:51 PM 39.6889 -74.5522 49° Northeast 178 205 5,000  Level Washington Center
Mon 02:45:51 PM 39.7319 -74.5447 North 163 188 5,000  Level Washington Center
Mon 02:46:55 PM 39.7761 -74.5414 North 162 186 5,000  Level Washington Center
Mon 02:47:55 PM 39.8325 -74.5350 North 167 192 5,000  Level Washington Center
Mon 02:48:59 PM 39.8797 -74.5303 North 167 192 5,000  Level Washington Center
Mon 02:50:00 PM 39.9242 -74.5250 North 167 192 5,000 -148 Level Washington Center
Mon 02:51:01 PM 39.9703 -74.5206 North 166 191 4,700 -384 Descending Washington Center
Mon 02:52:05 PM 40.0217 -74.5142 North 180 207 4,200 -222 Descending Washington Center
Mon 02:54:10 PM 40.1247 -74.5039 North 165 190 4,000 -67 Descending Washington Center
Mon 02:55:04 PM 40.1667 -74.5000 North 169 194 4,000  Level New York TRACON
Mon 02:56:04 PM 40.2167 -74.5167 346° North 180 207 4,000  Level New York TRACON
Mon 02:57:04 PM 40.2500 -74.5500 323° Northwest 153 176 4,000 50 Level New York TRACON
Mon 02:58:04 PM 40.2833 -74.5500 360° North 156 180 4,100  Climbing New York TRACON
Mon 02:59:04 PM 40.3333 -74.5667 346° North 155 178 4,000  Descending New York TRACON
Mon 03:00:04 PM 40.3833 -74.5833 346° North 158 182 4,100  Climbing New York TRACON
Mon 03:02:04 PM 40.4667 -74.5667 North 153 176 4,000  Descending New York TRACON
Mon 03:03:04 PM 40.5000 -74.5667 360° North 160 184 4,100  Climbing New York TRACON
Mon 03:04:04 PM 40.5500 -74.5667 360° North 171 197 4,000  Descending New York TRACON
Mon 03:05:04 PM 40.6000 -74.5667 360° North 161 185 4,100  Climbing New York TRACON
Mon 03:06:04 PM 40.6333 -74.5667 360° North 158 182 4,000 -33 Descending New York TRACON
Mon 03:08:04 PM 40.7167 -74.5667 360° North 156 180 4,000 -33 Level New York TRACON
Mon 03:09:04 PM 40.7667 -74.5500 14° North 165 190 3,900 -300 Descending New York TRACON
Mon 03:10:04 PM 40.8167 -74.5667 346° North 167 192 3,400 -450 Descending New York TRACON
Mon 03:11:04 PM 40.8500 -74.5333 37° Northeast 178 205 3,000 -200 Descending New York TRACON
Mon 03:12:04 PM 40.8833 -74.5000 37° Northeast 172 198 3,000 50 Level New York TRACON
Mon 03:13:04 PM 40.9167 -74.4500 49° Northeast 175 201 3,100 50 Climbing New York TRACON
Mon 03:14:04 PM 40.9667 -74.4167 27° Northeast 170 196 3,100  Level New York TRACON
Mon 03:15:04 PM 41.0000 -74.3667 49° Northeast 175 201 3,100  Level New York TRACON
Mon 03:16:04 PM 41.0333 -74.3167 49° Northeast 175 201 3,100 -50 Level New York TRACON
Mon 03:17:04 PM 41.0667 -74.2833 37° Northeast 171 197 3,000  Descending New York TRACON
Mon 03:19:04 PM 41.1167 -74.1833 56° Northeast 170 196 3,100 33 Climbing New York TRACON
Mon 03:20:04 PM 41.1500 -74.1333 48° Northeast 160 184 3,100  Level New York TRACON
Mon 03:21:04 PM 41.1667 -74.0833 66° East 163 188 3,100  Level New York TRACON
Mon 03:22:04 PM 41.1833 -74.0167 72° East 166 191 3,100  Level New York TRACON
Mon 03:24:04 PM 41.2167 -73.9000 69° East 171 197 3,100 -33 Level New York TRACON
Mon 03:25:04 PM 41.2500 -73.8500 48° Northeast 174 200 3,000  Descending New York TRACON
Mon 03:26:04 PM 41.2667 -73.8000 66° East 168 193 3,100 50 Climbing New York TRACON
Mon 03:27:04 PM 41.2833 -73.7333 72° East 171 197 3,100  Level New York TRACON
Mon 03:28:04 PM 41.3000 -73.6833 66° East 174 200 3,100 -250 Level New York TRACON
Mon 03:29:04 PM 41.3167 -73.6167 72° East 174 200 2,600 -550 Descending New York TRACON
Mon 03:30:04 PM 41.3333 -73.5500 72° East 173 199 2,000 -350 Descending New York TRACON
Mon 03:31:04 PM 41.3333 -73.5000 90° East 149 171 1,900 -200 Descending New York TRACON
Mon 03:32:04 PM 41.3333 -73.4667 90° East 113 130 1,600 -300 Descending New York TRACON
Mon 03:33:04 PM 41.3667 -73.4667 360° North 95 109 1,300 -300 Descending New York TRACON
Mon 03:35:00 PM 41.3715 -73.4822 62° Northeast  Level Estimated
Mon 03:42:00 PM 41.3715 -73.4822 62° Northeast  Level Estimated

Login

Don't have an account? Register now (free) for customized features, flight alerts, and more!